createdAt,value
2019-05-29T00:00:24.202Z,9.84
2019-05-29T00:01:24.180Z,9.86
2019-05-29T00:02:24.170Z,9.74
2019-05-29T00:03:24.159Z,9.78
2019-05-29T00:04:24.148Z,9.72
2019-05-29T00:05:24.138Z,9.86
2019-05-29T00:06:24.127Z,9.76
2019-05-29T00:07:24.117Z,9.75
2019-05-29T00:08:24.115Z,9.72
2019-05-29T00:09:24.093Z,9.74
2019-05-29T00:10:24.083Z,9.74
2019-05-29T00:11:24.074Z,9.74
2019-05-29T00:12:24.065Z,9.65
2019-05-29T00:13:24.052Z,9.69
2019-05-29T00:14:27.333Z,9.66
2019-05-29T00:15:24.030Z,9.71
2019-05-29T00:16:24.019Z,9.68
2019-05-29T00:17:24.010Z,9.64
2019-05-29T00:18:24.002Z,9.64
2019-05-29T00:19:23.988Z,9.66
2019-05-29T00:20:23.979Z,9.57
2019-05-29T00:21:23.967Z,9.56
2019-05-29T00:22:23.953Z,9.58
2019-05-29T00:23:23.947Z,9.58
2019-05-29T00:24:25.173Z,9.57
2019-05-29T00:25:23.921Z,9.58
2019-05-29T00:26:23.909Z,9.50
2019-05-29T00:27:23.899Z,9.47
2019-05-29T00:28:23.888Z,9.47
2019-05-29T00:29:23.882Z,9.51
2019-05-29T00:30:23.867Z,9.50
2019-05-29T00:31:23.865Z,9.47
2019-05-29T00:32:23.847Z,9.47
2019-05-29T00:33:23.835Z,9.47
2019-05-29T00:34:23.827Z,9.48
2019-05-29T00:35:23.813Z,9.47
2019-05-29T00:36:23.802Z,9.47
2019-05-29T00:37:23.794Z,9.50
2019-05-29T00:38:23.781Z,9.56
2019-05-29T00:39:23.770Z,9.58
2019-05-29T00:40:23.760Z,9.56
2019-05-29T00:41:23.751Z,9.60
2019-05-29T00:42:23.761Z,9.65
2019-05-29T00:43:23.728Z,9.71
2019-05-29T00:44:33.866Z,9.64
2019-05-29T00:45:24.704Z,9.65
2019-05-29T00:46:23.696Z,9.68
2019-05-29T00:47:23.684Z,9.71
2019-05-29T00:48:23.674Z,9.75
2019-05-29T00:49:23.663Z,9.75
2019-05-29T00:50:23.657Z,9.90
2019-05-29T00:51:23.640Z,9.96
2019-05-29T00:52:23.629Z,9.89
2019-05-29T00:53:23.627Z,9.93
2019-05-29T00:54:23.608Z,9.99
2019-05-29T00:55:23.596Z,10.01
2019-05-29T00:56:23.587Z,10.08
2019-05-29T00:57:23.583Z,10.09
2019-05-29T00:58:23.566Z,10.15
2019-05-29T00:59:23.557Z,10.22
2019-05-29T01:00:23.545Z,10.17
2019-05-29T01:01:23.540Z,10.20
2019-05-29T01:02:23.528Z,10.30
2019-05-29T01:03:23.511Z,10.18
2019-05-29T01:04:23.502Z,10.22
2019-05-29T01:05:23.490Z,10.26
2019-05-29T01:06:23.481Z,10.17
2019-05-29T01:07:23.469Z,10.23
2019-05-29T01:08:23.458Z,10.23
2019-05-29T01:09:23.448Z,10.23
2019-05-29T01:10:23.439Z,10.22
2019-05-29T01:11:23.433Z,10.29
2019-05-29T01:12:23.416Z,10.30
2019-05-29T01:13:23.406Z,10.30
2019-05-29T01:14:23.395Z,10.32
2019-05-29T01:15:23.383Z,10.34
2019-05-29T01:16:23.372Z,10.38
2019-05-29T01:17:23.364Z,10.41
2019-05-29T01:18:23.353Z,10.44
2019-05-29T01:19:23.344Z,10.38
2019-05-29T01:20:23.331Z,10.44
2019-05-29T01:21:23.321Z,10.53
2019-05-29T01:22:23.309Z,10.52
2019-05-29T01:23:23.297Z,10.48
2019-05-29T01:24:23.298Z,10.44
2019-05-29T01:25:23.276Z,10.44
2019-05-29T01:26:23.265Z,10.36
2019-05-29T01:27:23.256Z,10.47
2019-05-29T01:28:23.243Z,10.40
2019-05-29T01:29:23.464Z,10.34
2019-05-29T01:30:23.442Z,10.32
2019-05-29T01:31:23.615Z,10.36
2019-05-29T01:32:23.743Z,10.42
2019-05-29T01:33:24.700Z,10.53
2019-05-29T01:34:23.955Z,10.41
2019-05-29T01:35:24.165Z,10.45
2019-05-29T01:36:24.183Z,10.47
2019-05-29T01:37:24.277Z,10.44
2019-05-29T01:38:23.495Z,10.59
2019-05-29T01:39:23.519Z,10.48
2019-05-29T01:40:27.223Z,10.56
2019-05-29T01:41:24.108Z,10.61
2019-05-29T01:42:23.538Z,10.59
2019-05-29T01:43:23.579Z,10.59
2019-05-29T01:44:23.725Z,10.56
2019-05-29T01:45:23.561Z,10.56
2019-05-29T01:46:23.939Z,10.59
2019-05-29T01:47:23.668Z,10.59
2019-05-29T01:48:23.649Z,10.56
2019-05-29T01:49:23.865Z,10.59
2019-05-29T01:50:23.730Z,10.63
2019-05-29T01:51:23.758Z,10.55
2019-05-29T01:52:23.816Z,10.55
2019-05-29T01:53:23.761Z,10.61
2019-05-29T01:54:23.816Z,10.53
2019-05-29T01:55:23.834Z,10.55
2019-05-29T01:56:23.895Z,10.52
2019-05-29T01:57:23.795Z,10.63
2019-05-29T01:58:23.894Z,10.53
2019-05-29T01:59:23.979Z,10.56
2019-05-29T02:00:24.146Z,10.60
2019-05-29T02:01:24.007Z,10.56
2019-05-29T02:02:23.940Z,10.59
2019-05-29T02:03:23.974Z,10.56
2019-05-29T02:04:24.047Z,10.56
2019-05-29T02:05:24.024Z,10.59
2019-05-29T02:06:23.989Z,10.59
2019-05-29T02:07:23.990Z,10.56
2019-05-29T02:08:22.818Z,10.52
2019-05-29T02:09:22.805Z,10.56
2019-05-29T02:10:22.799Z,10.63
2019-05-29T02:11:23.330Z,10.56
2019-05-29T02:12:22.775Z,10.59
2019-05-29T02:13:23.564Z,10.55
2019-05-29T02:14:22.820Z,10.60
2019-05-29T02:15:31.479Z,10.59
2019-05-29T02:16:24.899Z,10.52
2019-05-29T02:17:23.797Z,10.63
2019-05-29T02:18:23.033Z,10.52
2019-05-29T02:19:23.918Z,10.56
2019-05-29T02:20:23.164Z,10.59
2019-05-29T02:21:22.676Z,10.55
2019-05-29T02:22:23.099Z,10.61
2019-05-29T02:23:22.657Z,10.55
2019-05-29T02:24:23.262Z,10.56
2019-05-29T02:25:22.633Z,10.60
2019-05-29T02:26:22.623Z,10.52
2019-05-29T02:27:23.491Z,10.56
2019-05-29T02:28:22.676Z,10.56
2019-05-29T02:29:22.930Z,10.60
2019-05-29T02:30:25.375Z,10.56
2019-05-29T02:31:24.699Z,10.59
2019-05-29T02:32:23.600Z,10.59
2019-05-29T02:33:24.138Z,10.60
2019-05-29T02:34:24.904Z,10.59
2019-05-29T02:35:24.497Z,10.60
2019-05-29T02:36:24.363Z,10.59
2019-05-29T02:37:24.113Z,10.61
2019-05-29T02:38:23.381Z,10.61
2019-05-29T02:39:23.037Z,10.56
2019-05-29T02:40:25.147Z,10.56
2019-05-29T02:41:24.151Z,10.59
2019-05-29T02:42:22.736Z,10.45
2019-05-29T02:43:23.594Z,10.60
2019-05-29T02:44:23.438Z,10.55
2019-05-29T02:45:26.195Z,10.48
2019-05-29T02:46:23.948Z,10.59
2019-05-29T02:47:23.573Z,10.48
2019-05-29T02:48:23.213Z,10.59
2019-05-29T02:49:23.878Z,10.45
2019-05-29T02:50:23.919Z,10.47
2019-05-29T02:51:24.054Z,10.56
2019-05-29T02:52:24.169Z,10.45
2019-05-29T02:53:22.409Z,10.52
2019-05-29T02:54:22.628Z,10.47
2019-05-29T02:55:22.710Z,10.48
2019-05-29T02:56:22.998Z,10.44
2019-05-29T02:57:22.819Z,10.51
2019-05-29T02:58:24.071Z,10.42
2019-05-29T02:59:23.477Z,10.41
2019-05-29T03:00:23.402Z,10.44
2019-05-29T03:01:24.015Z,10.44
2019-05-29T03:02:23.425Z,10.42
2019-05-29T03:03:23.798Z,10.44
2019-05-29T03:04:23.866Z,10.41
2019-05-29T03:05:23.727Z,10.40
2019-05-29T03:06:22.742Z,10.48
2019-05-29T03:07:22.369Z,10.42
2019-05-29T03:08:22.374Z,10.45
2019-05-29T03:09:22.825Z,10.33
2019-05-29T03:10:22.581Z,10.42
2019-05-29T03:11:23.097Z,10.40
2019-05-29T03:12:22.860Z,10.38
2019-05-29T03:13:23.156Z,10.36
2019-05-29T03:14:22.928Z,10.40
2019-05-29T03:15:23.539Z,10.29
2019-05-29T03:16:23.816Z,10.36
2019-05-29T03:17:23.702Z,10.30
2019-05-29T03:18:23.790Z,10.36
2019-05-29T03:19:23.801Z,10.33
2019-05-29T03:20:22.044Z,10.32
2019-05-29T03:21:22.034Z,10.32
2019-05-29T03:22:22.023Z,10.38
2019-05-29T03:23:22.013Z,10.33
2019-05-29T03:24:22.003Z,10.38
2019-05-29T03:25:21.988Z,10.36
2019-05-29T03:26:25.265Z,10.36
2019-05-29T03:27:22.971Z,10.40
2019-05-29T03:28:21.969Z,10.33
2019-05-29T03:29:21.949Z,10.36
2019-05-29T03:30:21.939Z,10.38
2019-05-29T03:31:21.934Z,10.41
2019-05-29T03:32:21.955Z,10.33
2019-05-29T03:33:21.927Z,10.40
2019-05-29T03:34:21.918Z,10.36
2019-05-29T03:35:21.883Z,10.36
2019-05-29T03:36:21.919Z,10.33
2019-05-29T03:37:21.864Z,10.32
2019-05-29T03:38:21.879Z,10.32
2019-05-29T03:39:21.841Z,10.30
2019-05-29T03:40:21.841Z,10.36
2019-05-29T03:41:21.820Z,10.22
2019-05-29T03:42:21.809Z,10.33
2019-05-29T03:43:21.798Z,10.41
2019-05-29T03:44:21.789Z,10.41
2019-05-29T03:45:21.923Z,10.34
2019-05-29T03:46:31.511Z,10.34
2019-05-29T03:47:22.759Z,10.38
2019-05-29T03:48:21.746Z,10.45
2019-05-29T03:49:21.745Z,10.40
2019-05-29T03:50:21.737Z,10.38
2019-05-29T03:51:21.713Z,10.40
2019-05-29T03:52:21.706Z,10.42
2019-05-29T03:53:21.690Z,10.33
2019-05-29T03:54:21.680Z,10.40
2019-05-29T03:55:21.685Z,10.30
2019-05-29T03:56:21.663Z,10.32
2019-05-29T03:57:21.647Z,10.36
2019-05-29T03:58:21.636Z,10.41
2019-05-29T03:59:21.626Z,10.45
2019-05-29T04:00:21.640Z,10.41
2019-05-29T04:01:21.611Z,10.36
2019-05-29T04:02:21.595Z,10.41
2019-05-29T04:03:21.584Z,10.40
2019-05-29T04:04:21.574Z,10.42
2019-05-29T04:05:21.566Z,10.47
2019-05-29T04:06:21.561Z,10.47
2019-05-29T04:07:21.575Z,10.44
2019-05-29T04:08:21.540Z,10.51
2019-05-29T04:09:21.519Z,10.53
2019-05-29T04:10:21.516Z,10.56
2019-05-29T04:11:21.499Z,10.63
2019-05-29T04:12:21.493Z,10.53
2019-05-29T04:13:21.477Z,10.52
2019-05-29T04:14:21.467Z,10.61
2019-05-29T04:15:21.455Z,10.68
2019-05-29T04:16:21.451Z,10.64
2019-05-29T04:17:21.434Z,10.67
2019-05-29T04:18:21.434Z,10.64
2019-05-29T04:19:21.412Z,10.73
2019-05-29T04:20:21.405Z,10.70
2019-05-29T04:21:21.390Z,10.71
2019-05-29T04:22:21.380Z,10.70
2019-05-29T04:23:21.369Z,10.64
2019-05-29T04:24:21.360Z,10.73
2019-05-29T04:25:21.350Z,10.73
2019-05-29T04:26:21.350Z,10.68
2019-05-29T04:27:21.337Z,10.71
2019-05-29T04:28:21.318Z,10.68
2019-05-29T04:29:21.310Z,10.68
2019-05-29T04:30:21.300Z,10.70
2019-05-29T04:31:21.285Z,10.76
2019-05-29T04:32:21.273Z,10.74
2019-05-29T04:33:21.262Z,10.79
2019-05-29T04:34:21.254Z,10.76
2019-05-29T04:35:21.242Z,10.70
2019-05-29T04:36:21.232Z,10.76
2019-05-29T04:37:21.279Z,10.81
2019-05-29T04:38:21.211Z,10.73
2019-05-29T04:39:21.198Z,10.76
2019-05-29T04:40:21.191Z,10.82
2019-05-29T04:41:21.178Z,10.84
2019-05-29T04:42:21.169Z,10.85
2019-05-29T04:43:21.153Z,10.85
2019-05-29T04:44:21.145Z,10.89
2019-05-29T04:45:21.140Z,10.92
2019-05-29T04:46:21.125Z,10.88
2019-05-29T04:47:21.122Z,10.88
2019-05-29T04:48:21.100Z,10.91
2019-05-29T04:49:21.093Z,10.97
2019-05-29T04:50:21.083Z,10.96
2019-05-29T04:51:21.072Z,10.92
2019-05-29T04:52:21.057Z,10.92
2019-05-29T04:53:21.049Z,10.89
2019-05-29T04:54:21.036Z,10.92
2019-05-29T04:55:21.024Z,10.94
2019-05-29T04:56:21.013Z,10.92
2019-05-29T04:57:21.004Z,11.00
2019-05-29T04:58:20.993Z,11.03
2019-05-29T04:59:20.981Z,11.07
2019-05-29T05:00:21.103Z,11.00
2019-05-29T05:01:20.956Z,11.03
2019-05-29T05:02:20.947Z,11.09
2019-05-29T05:03:20.939Z,11.11
2019-05-29T05:04:20.924Z,11.17
2019-05-29T05:05:20.934Z,11.14
2019-05-29T05:06:20.906Z,11.17
2019-05-29T05:07:20.892Z,11.17
2019-05-29T05:08:20.885Z,11.11
2019-05-29T05:09:20.872Z,11.32
2019-05-29T05:10:20.866Z,11.29
2019-05-29T05:11:20.853Z,11.36
2019-05-29T05:12:20.871Z,11.37
2019-05-29T05:13:20.827Z,11.40
2019-05-29T05:14:20.815Z,11.47
2019-05-29T05:15:20.805Z,11.51
2019-05-29T05:16:20.795Z,11.54
2019-05-29T05:17:26.318Z,11.51
2019-05-29T05:18:21.774Z,11.55
2019-05-29T05:19:20.761Z,11.61
2019-05-29T05:20:20.749Z,11.55
2019-05-29T05:21:20.738Z,11.55
2019-05-29T05:22:20.730Z,11.60
2019-05-29T05:23:20.719Z,11.51
2019-05-29T05:24:20.715Z,11.69
2019-05-29T05:25:20.699Z,11.73
2019-05-29T05:26:20.685Z,11.54
2019-05-29T05:27:20.675Z,11.57
2019-05-29T05:28:20.665Z,11.54
2019-05-29T05:29:20.659Z,11.52
2019-05-29T05:30:20.660Z,11.67
2019-05-29T05:31:20.630Z,11.75
2019-05-29T05:32:20.620Z,11.58
2019-05-29T05:33:20.611Z,11.57
2019-05-29T05:34:20.602Z,11.55
2019-05-29T05:35:20.590Z,11.49
2019-05-29T05:36:20.579Z,11.49
2019-05-29T05:37:20.574Z,11.44
2019-05-29T05:38:20.558Z,11.46
2019-05-29T05:39:20.548Z,11.55
2019-05-29T05:40:20.538Z,11.55
2019-05-29T05:41:20.562Z,11.67
2019-05-29T05:42:20.515Z,11.83
2019-05-29T05:43:24.207Z,11.86
2019-05-29T05:44:20.498Z,11.96
2019-05-29T05:45:20.495Z,12.09
2019-05-29T05:46:20.472Z,12.28
2019-05-29T05:47:20.523Z,12.64
2019-05-29T05:48:20.450Z,12.90
2019-05-29T05:49:20.467Z,13.11
2019-05-29T05:50:20.450Z,13.41
2019-05-29T05:51:20.417Z,13.64
2019-05-29T05:52:20.418Z,13.70
2019-05-29T05:53:20.395Z,13.62
2019-05-29T05:54:20.386Z,13.64
2019-05-29T05:55:20.374Z,13.66
2019-05-29T05:56:20.363Z,13.81
2019-05-29T05:57:20.355Z,13.85
2019-05-29T05:58:20.340Z,13.96
2019-05-29T05:59:20.330Z,14.02
2019-05-29T06:00:20.326Z,13.62
2019-05-29T06:01:20.311Z,13.45
2019-05-29T06:02:20.298Z,13.36
2019-05-29T06:03:20.288Z,13.30
2019-05-29T06:04:20.277Z,13.48
2019-05-29T06:05:20.289Z,13.64
2019-05-29T06:06:20.257Z,14.35
2019-05-29T06:07:20.243Z,14.83
2019-05-29T06:08:20.232Z,14.64
2019-05-29T06:09:20.231Z,14.40
2019-05-29T06:10:20.212Z,14.17
2019-05-29T06:11:20.209Z,14.03
2019-05-29T06:12:20.216Z,14.04
2019-05-29T06:13:20.184Z,14.07
2019-05-29T06:14:20.171Z,14.32
2019-05-29T06:15:20.159Z,14.51
2019-05-29T06:16:20.147Z,14.68
2019-05-29T06:17:21.940Z,14.78
2019-05-29T06:18:21.825Z,14.70
2019-05-29T06:19:20.116Z,14.37
2019-05-29T06:20:20.106Z,14.32
2019-05-29T06:21:20.093Z,14.45
2019-05-29T06:22:20.085Z,14.60
2019-05-29T06:23:20.093Z,14.40
2019-05-29T06:24:20.060Z,14.39
2019-05-29T06:25:20.057Z,14.32
2019-05-29T06:26:20.044Z,14.17
2019-05-29T06:27:20.029Z,13.92
2019-05-29T06:28:20.017Z,13.75
2019-05-29T06:29:20.018Z,13.73
2019-05-29T06:30:20.010Z,13.63
2019-05-29T06:31:19.982Z,13.70
2019-05-29T06:32:19.974Z,13.78
2019-05-29T06:33:19.963Z,13.99
2019-05-29T06:34:19.951Z,14.15
2019-05-29T06:35:19.941Z,14.18
2019-05-29T06:36:19.931Z,14.21
2019-05-29T06:37:19.919Z,14.07
2019-05-29T06:38:19.909Z,14.09
2019-05-29T06:39:19.899Z,14.02
2019-05-29T06:40:19.884Z,14.03
2019-05-29T06:41:19.875Z,13.92
2019-05-29T06:42:19.862Z,13.88
2019-05-29T06:43:19.851Z,13.87
2019-05-29T06:44:19.845Z,13.87
2019-05-29T06:45:19.831Z,13.88
2019-05-29T06:46:19.820Z,13.73
2019-05-29T06:47:19.810Z,13.85
2019-05-29T06:48:30.755Z,13.73
2019-05-29T06:49:20.789Z,13.59
2019-05-29T06:50:19.777Z,13.69
2019-05-29T06:51:19.774Z,13.64
2019-05-29T06:52:19.758Z,13.78
2019-05-29T06:53:19.748Z,13.91
2019-05-29T06:54:19.735Z,13.67
2019-05-29T06:55:19.722Z,13.67
2019-05-29T06:56:19.715Z,13.82
2019-05-29T06:57:19.716Z,13.97
2019-05-29T06:58:19.688Z,14.03
2019-05-29T06:59:19.682Z,14.33
2019-05-29T07:00:34.389Z,14.43
2019-05-29T07:01:20.654Z,14.50
2019-05-29T07:02:19.645Z,14.55
2019-05-29T07:03:19.642Z,14.47
2019-05-29T07:04:19.624Z,14.64
2019-05-29T07:05:19.615Z,14.65
2019-05-29T07:06:19.601Z,14.72
2019-05-29T07:07:19.614Z,14.62
2019-05-29T07:08:35.168Z,14.58
2019-05-29T07:09:20.567Z,14.70
2019-05-29T07:10:19.590Z,14.81
2019-05-29T07:11:19.548Z,15.01
2019-05-29T07:12:19.539Z,15.09
2019-05-29T07:13:19.528Z,15.21
2019-05-29T07:14:19.515Z,15.59
2019-05-29T07:15:19.509Z,16.02
2019-05-29T07:16:19.495Z,16.24
2019-05-29T07:17:19.482Z,16.48
2019-05-29T07:18:19.477Z,16.86
2019-05-29T07:19:26.446Z,16.52
2019-05-29T07:20:20.448Z,16.86
2019-05-29T07:21:19.444Z,16.79
2019-05-29T07:22:19.433Z,16.76
2019-05-29T07:23:19.424Z,16.82
2019-05-29T07:24:19.406Z,16.64
2019-05-29T07:25:19.398Z,16.35
2019-05-29T07:26:19.420Z,15.90
2019-05-29T07:27:19.374Z,15.89
2019-05-29T07:28:19.366Z,16.07
2019-05-29T07:29:19.371Z,15.78
2019-05-29T07:30:19.342Z,15.54
2019-05-29T07:31:19.332Z,15.27
2019-05-29T07:32:19.332Z,15.14
2019-05-29T07:33:19.311Z,15.07
2019-05-29T07:34:19.301Z,15.25
2019-05-29T07:35:19.288Z,15.68
2019-05-29T07:36:19.293Z,15.97
2019-05-29T07:37:19.269Z,15.76
2019-05-29T07:38:19.264Z,15.32
2019-05-29T07:39:19.248Z,14.95
2019-05-29T07:40:19.247Z,14.81
2019-05-29T07:41:19.226Z,14.65
2019-05-29T07:42:19.225Z,14.52
2019-05-29T07:43:19.204Z,14.39
2019-05-29T07:44:19.193Z,14.36
2019-05-29T07:45:19.185Z,14.47
2019-05-29T07:46:19.172Z,14.86
2019-05-29T07:47:19.163Z,14.81
2019-05-29T07:48:19.158Z,14.84
2019-05-29T07:49:19.139Z,15.29
2019-05-29T07:50:19.127Z,15.64
2019-05-29T07:51:19.123Z,15.97
2019-05-29T07:52:19.106Z,16.34
2019-05-29T07:53:19.116Z,16.73
2019-05-29T07:54:19.110Z,17.22
2019-05-29T07:55:19.075Z,17.36
2019-05-29T07:56:23.076Z,17.37
2019-05-29T07:57:19.081Z,17.38
2019-05-29T07:58:19.051Z,17.44
2019-05-29T07:59:19.031Z,17.64
2019-05-29T08:00:19.021Z,17.86
2019-05-29T08:01:19.009Z,17.74
2019-05-29T08:02:18.998Z,17.62
2019-05-29T08:03:18.987Z,17.74
2019-05-29T08:04:18.981Z,17.49
2019-05-29T08:05:18.989Z,17.48
2019-05-29T08:06:18.955Z,17.56
2019-05-29T08:07:18.948Z,17.66
2019-05-29T08:08:18.935Z,17.71
2019-05-29T08:09:18.922Z,17.77
2019-05-29T08:10:18.911Z,17.62
2019-05-29T08:11:18.927Z,17.21
2019-05-29T08:12:18.891Z,16.88
2019-05-29T08:13:18.882Z,16.60
2019-05-29T08:14:18.900Z,16.98
2019-05-29T08:15:18.860Z,17.23
2019-05-29T08:16:18.849Z,17.04
2019-05-29T08:17:18.840Z,17.18
2019-05-29T08:18:18.826Z,16.75
2019-05-29T08:19:18.825Z,16.42
2019-05-29T08:20:18.806Z,16.71
2019-05-29T08:21:18.796Z,16.82
2019-05-29T08:22:33.208Z,17.04
2019-05-29T08:23:19.781Z,17.25
2019-05-29T08:24:18.766Z,17.49
2019-05-29T08:25:18.752Z,17.48
2019-05-29T08:26:18.744Z,17.44
2019-05-29T08:27:18.732Z,17.40
2019-05-29T08:28:18.721Z,16.78
2019-05-29T08:29:18.714Z,16.52
2019-05-29T08:30:18.702Z,16.20
2019-05-29T08:31:18.689Z,15.78
2019-05-29T08:32:18.679Z,15.49
2019-05-29T08:33:18.668Z,15.46
2019-05-29T08:34:18.656Z,15.44
2019-05-29T08:35:18.647Z,15.94
2019-05-29T08:36:18.636Z,16.07
2019-05-29T08:37:18.626Z,16.58
2019-05-29T08:38:18.642Z,17.12
2019-05-29T08:39:33.650Z,17.46
2019-05-29T08:40:19.595Z,18.11
2019-05-29T08:41:18.583Z,18.58
2019-05-29T08:42:23.328Z,19.22
2019-05-29T08:43:19.561Z,19.65
2019-05-29T08:44:18.551Z,19.77
2019-05-29T08:45:18.540Z,20.02
2019-05-29T08:46:18.531Z,20.26
2019-05-29T08:47:18.524Z,20.28
2019-05-29T08:48:18.510Z,20.36
2019-05-29T08:49:18.499Z,20.03
2019-05-29T08:50:19.380Z,19.80
2019-05-29T08:51:18.482Z,18.72
2019-05-29T08:52:18.468Z,18.26
2019-05-29T08:53:18.458Z,18.00
2019-05-29T08:54:23.766Z,17.34
2019-05-29T08:55:19.437Z,17.78
2019-05-29T08:56:18.427Z,17.96
2019-05-29T08:57:18.416Z,18.69
2019-05-29T08:58:18.446Z,19.37
2019-05-29T08:59:18.401Z,19.83
2019-05-29T09:00:18.386Z,20.02
2019-05-29T09:01:18.401Z,20.21
2019-05-29T09:02:18.373Z,19.96
2019-05-29T09:03:18.356Z,19.54
2019-05-29T09:04:18.347Z,19.62
2019-05-29T09:05:18.350Z,19.58
2019-05-29T09:06:18.333Z,19.10
2019-05-29T09:07:18.315Z,18.62
2019-05-29T09:08:18.303Z,18.65
2019-05-29T09:09:18.299Z,18.36
2019-05-29T09:10:18.326Z,17.99
2019-05-29T09:11:18.272Z,17.43
2019-05-29T09:12:18.283Z,17.25
2019-05-29T09:13:18.256Z,17.07
2019-05-29T09:14:18.248Z,17.38
2019-05-29T09:15:21.014Z,17.99
2019-05-29T09:16:18.218Z,18.44
2019-05-29T09:17:18.552Z,17.86
2019-05-29T09:18:19.749Z,17.44
2019-05-29T09:19:18.871Z,16.97
2019-05-29T09:20:34.079Z,16.76
2019-05-29T09:21:19.573Z,17.15
2019-05-29T09:22:18.565Z,16.81
2019-05-29T09:23:18.921Z,16.96
2019-05-29T09:24:19.396Z,17.59
2019-05-29T09:25:19.089Z,18.33
2019-05-29T09:26:22.229Z,18.63
2019-05-29T09:27:19.241Z,18.80
2019-05-29T09:28:20.023Z,19.13
2019-05-29T09:29:21.450Z,19.81
2019-05-29T09:30:20.165Z,20.08
2019-05-29T09:31:18.665Z,20.28
2019-05-29T09:32:18.722Z,19.71
2019-05-29T09:33:21.134Z,19.32
2019-05-29T09:34:18.831Z,19.04
2019-05-29T09:35:19.664Z,18.58
2019-05-29T09:36:18.781Z,19.25
2019-05-29T09:37:19.033Z,19.84
2019-05-29T09:38:18.815Z,19.16
2019-05-29T09:39:19.472Z,18.62
2019-05-29T09:40:18.989Z,18.15
2019-05-29T09:41:19.037Z,17.72
2019-05-29T09:42:19.145Z,17.74
2019-05-29T09:43:18.708Z,18.58
2019-05-29T09:44:31.098Z,19.33
2019-05-29T09:45:19.550Z,19.18
2019-05-29T09:46:18.654Z,18.73
2019-05-29T09:47:19.005Z,18.30
2019-05-29T09:48:20.224Z,18.54
2019-05-29T09:49:20.196Z,18.80
2019-05-29T09:50:18.719Z,19.31
2019-05-29T09:51:21.246Z,19.48
2019-05-29T09:52:17.840Z,19.77
2019-05-29T09:53:17.831Z,20.08
2019-05-29T09:54:17.894Z,19.71
2019-05-29T09:55:17.811Z,19.96
2019-05-29T09:56:17.799Z,19.76
2019-05-29T09:57:17.788Z,19.88
2019-05-29T09:58:17.782Z,19.26
2019-05-29T09:59:17.794Z,19.59
2019-05-29T10:00:17.760Z,20.03
2019-05-29T10:01:23.894Z,20.38
2019-05-29T10:02:18.739Z,20.80
2019-05-29T10:03:17.731Z,20.74
2019-05-29T10:04:17.721Z,20.88
2019-05-29T10:05:17.712Z,21.25
2019-05-29T10:06:17.699Z,21.58
2019-05-29T10:07:17.689Z,22.06
2019-05-29T10:08:17.680Z,21.96
2019-05-29T10:09:17.666Z,21.52
2019-05-29T10:10:17.658Z,20.87
2019-05-29T10:11:17.650Z,20.23
2019-05-29T10:12:17.638Z,20.31
2019-05-29T10:13:17.628Z,19.73
2019-05-29T10:14:17.659Z,19.36
2019-05-29T10:15:17.606Z,19.43
2019-05-29T10:16:17.596Z,19.94
2019-05-29T10:17:17.603Z,19.98
2019-05-29T10:18:31.238Z,19.77
2019-05-29T10:19:18.565Z,19.11
2019-05-29T10:20:17.559Z,19.07
2019-05-29T10:21:17.545Z,18.69
2019-05-29T10:22:17.533Z,18.98
2019-05-29T10:23:19.999Z,19.74
2019-05-29T10:24:17.513Z,20.14
2019-05-29T10:25:17.502Z,20.70
2019-05-29T10:26:17.496Z,21.09
2019-05-29T10:27:17.481Z,21.49
2019-05-29T10:28:17.472Z,21.50
2019-05-29T10:29:17.520Z,21.65
2019-05-29T10:30:17.457Z,21.69
2019-05-29T10:31:17.442Z,21.54
2019-05-29T10:32:17.431Z,21.46
2019-05-29T10:33:17.428Z,21.59
2019-05-29T10:34:17.473Z,21.79
2019-05-29T10:35:17.416Z,21.34
2019-05-29T10:36:17.391Z,21.43
2019-05-29T10:37:18.308Z,21.27
2019-05-29T10:38:17.402Z,21.61
2019-05-29T10:39:17.362Z,21.04
2019-05-29T10:40:17.354Z,20.72
2019-05-29T10:41:17.413Z,20.31
2019-05-29T10:42:20.469Z,19.68
2019-05-29T10:43:33.124Z,19.54
2019-05-29T10:44:18.321Z,19.16
2019-05-29T10:45:17.295Z,19.07
2019-05-29T10:46:17.287Z,19.51
2019-05-29T10:47:17.275Z,19.99
2019-05-29T10:48:17.264Z,20.33
2019-05-29T10:49:17.256Z,21.06
2019-05-29T10:50:17.255Z,21.07
2019-05-29T10:51:17.235Z,20.29
2019-05-29T10:52:17.685Z,19.50
2019-05-29T10:53:17.228Z,19.63
2019-05-29T10:54:17.205Z,20.17
2019-05-29T10:55:17.192Z,20.50
2019-05-29T10:56:20.898Z,20.18
2019-05-29T10:57:17.173Z,19.50
2019-05-29T10:58:17.166Z,18.87
2019-05-29T10:59:17.153Z,18.25
2019-05-29T11:00:17.328Z,18.95
2019-05-29T11:01:17.127Z,18.95
2019-05-29T11:02:17.120Z,19.11
2019-05-29T11:03:17.139Z,19.08
2019-05-29T11:04:17.099Z,18.66
2019-05-29T11:05:17.139Z,18.47
2019-05-29T11:06:17.118Z,18.37
2019-05-29T11:07:17.125Z,18.21
2019-05-29T11:08:17.096Z,18.62
2019-05-29T11:09:17.044Z,19.32
2019-05-29T11:10:17.040Z,19.16
2019-05-29T11:11:17.022Z,18.52
2019-05-29T11:12:17.097Z,18.58
2019-05-29T11:13:17.003Z,18.90
2019-05-29T11:14:16.999Z,18.72
2019-05-29T11:15:21.504Z,18.48
2019-05-29T11:16:18.016Z,18.98
2019-05-29T11:17:17.024Z,19.81
2019-05-29T11:18:16.953Z,20.26
2019-05-29T11:19:16.952Z,20.10
2019-05-29T11:20:16.954Z,20.28
2019-05-29T11:21:16.958Z,20.72
2019-05-29T11:22:26.162Z,21.19
2019-05-29T11:23:17.957Z,20.61
2019-05-29T11:24:16.938Z,20.33
2019-05-29T11:25:23.554Z,20.18
2019-05-29T11:26:17.861Z,20.23
2019-05-29T11:27:16.853Z,20.62
2019-05-29T11:28:16.842Z,21.13
2019-05-29T11:29:16.832Z,21.46
2019-05-29T11:30:16.825Z,21.69
2019-05-29T11:31:16.811Z,21.92
2019-05-29T11:32:16.801Z,22.05
2019-05-29T11:33:16.792Z,21.83
2019-05-29T11:34:16.779Z,21.59
2019-05-29T11:35:16.774Z,21.31
2019-05-29T11:36:16.762Z,21.47
2019-05-29T11:37:16.749Z,21.13
2019-05-29T11:38:16.741Z,20.57
2019-05-29T11:39:16.729Z,20.06
2019-05-29T11:40:16.716Z,19.95
2019-05-29T11:41:25.667Z,20.47
2019-05-29T11:42:27.321Z,20.61
2019-05-29T11:43:17.687Z,21.19
2019-05-29T11:44:16.676Z,21.88
2019-05-29T11:45:16.668Z,21.82
2019-05-29T11:46:16.661Z,22.03
2019-05-29T11:47:16.647Z,22.24
2019-05-29T11:48:16.634Z,21.83
2019-05-29T11:49:16.627Z,22.07
2019-05-29T11:50:19.945Z,21.13
2019-05-29T11:51:16.602Z,20.54
2019-05-29T11:52:24.089Z,20.94
2019-05-29T11:53:17.582Z,21.37
2019-05-29T11:54:16.574Z,21.79
2019-05-29T11:55:16.561Z,21.25
2019-05-29T11:56:16.552Z,21.16
2019-05-29T11:57:16.540Z,20.48
2019-05-29T11:58:30.767Z,20.61
2019-05-29T11:59:17.519Z,21.12
2019-05-29T12:00:20.173Z,21.50
2019-05-29T12:01:16.499Z,21.04
2019-05-29T12:02:16.489Z,20.62
2019-05-29T12:03:16.477Z,21.07
2019-05-29T12:04:25.505Z,21.58
2019-05-29T12:05:17.456Z,21.99
2019-05-29T12:06:16.447Z,22.06
2019-05-29T12:07:16.436Z,22.55
2019-05-29T12:08:16.423Z,22.57
2019-05-29T12:09:31.450Z,22.39
2019-05-29T12:10:17.513Z,21.47
2019-05-29T12:11:16.394Z,21.92
2019-05-29T12:12:16.383Z,21.65
2019-05-29T12:13:16.373Z,22.07
2019-05-29T12:14:16.361Z,22.37
2019-05-29T12:15:18.709Z,22.65
2019-05-29T12:16:16.341Z,22.91
2019-05-29T12:17:16.334Z,23.07
2019-05-29T12:18:23.587Z,23.01
2019-05-29T12:19:17.315Z,22.92
2019-05-29T12:20:31.134Z,22.70
2019-05-29T12:21:17.288Z,23.16
2019-05-29T12:22:16.279Z,23.04
2019-05-29T12:23:25.859Z,22.94
2019-05-29T12:24:17.255Z,23.16
2019-05-29T12:25:16.247Z,23.27
2019-05-29T12:26:22.685Z,23.39
2019-05-29T12:27:17.226Z,24.02
2019-05-29T12:28:16.226Z,23.79
2019-05-29T12:29:16.231Z,23.60
2019-05-29T12:30:16.195Z,23.55
2019-05-29T12:31:16.186Z,23.60
2019-05-29T12:32:16.220Z,23.72
2019-05-29T12:33:16.163Z,24.02
2019-05-29T12:34:19.271Z,24.37
2019-05-29T12:35:16.144Z,24.65
2019-05-29T12:36:16.135Z,24.64
2019-05-29T12:37:16.124Z,24.49
2019-05-29T12:38:16.114Z,23.94
2019-05-29T12:39:16.105Z,22.85
2019-05-29T12:40:16.099Z,22.65
2019-05-29T12:41:16.081Z,22.91
2019-05-29T12:42:16.072Z,23.20
2019-05-29T12:43:26.428Z,23.36
2019-05-29T12:44:17.049Z,23.36
2019-05-29T12:45:16.044Z,23.20
2019-05-29T12:46:16.034Z,23.47
2019-05-29T12:47:16.022Z,23.69
2019-05-29T12:48:16.712Z,23.73
2019-05-29T12:49:15.998Z,23.83
2019-05-29T12:50:15.989Z,22.86
2019-05-29T12:51:15.978Z,21.62
2019-05-29T12:52:15.966Z,20.99
2019-05-29T12:53:29.500Z,20.24
2019-05-29T12:54:16.945Z,19.74